Historique des mesures à Cassis (13260), France
Quotidien Résumé Aout 3, 2020 Unités:  Métrique    US   Métrique/US
Quotidien Hebdomadaire Mensuel Annuel
  Maximum: Minimum: Moyenne:
Température: 26.5 °C 17.1 °C 21.6 °C
Point de rosée: 17.2 °C 9.3 °C 13.3 °C
Humidité: 71% 54% 60%
Vitesse du vent: 7.2km/h 0km/h 2.1km/h
Rafales: 12.2km/h - -
Vent- - South
Pression: 1020.6 hPa 1014.3 hPa -
Précipitations: 0.0 mm    
Historical Graphs
 
 
Mesures pour : Aout 3, 2020
Heure Temperature Point de rosée Pression Vent Vitesse du vent Rafales Humidité Pluie (par heure)
00:11 19.4 °C 9.8 °C 1014.3 hPa Calm   1.1 km/h 54% 0.0 mm
01:11 19.1 °C 10.4 °C 1014.5 hPa NNW 2.2 km/h 2.5 km/h 57% 0.0 mm
02:11 18.6 °C 10.2 °C 1014.6 hPa Calm   1.8 km/h 58% 0.0 mm
03:11 18.3 °C 10.1 °C 1014.6 hPa Calm   2.2 km/h 59% 0.0 mm
04:11 17.8 °C 9.7 °C 1014.6 hPa WNW 4 km/h 4 km/h 59% 0.0 mm
05:11 17.4 °C 9.3 °C 1014.4 hPa Calm   2.5 km/h 59% 0.0 mm
06:11 17.1 °C 9.3 °C 1014.7 hPa Calm     60% 0.0 mm
07:11 17.1 °C 9.5 °C 1015.4 hPa Calm   2.2 km/h 61% 0.0 mm
08:11 17.9 °C 10.2 °C 1015.8 hPa Calm   1.4 km/h 61% 0.0 mm
09:11 19.9 °C 13.3 °C 1016.2 hPa Calm   3.6 km/h 66% 0.0 mm
10:11 20.4 °C 13.1 °C 1016.8 hPa SE 6.5 km/h 10.1 km/h 63% 0.0 mm
11:11 22.4 °C 14 °C 1017.4 hPa SE 7.2 km/h 11.2 km/h 59% 0.0 mm
12:11 25.1 °C 15.5 °C 1017.4 hPa SE 3.6 km/h 4.3 km/h 56% 0.0 mm
13:11 25.9 °C 16.7 °C 1017.8 hPa SE 3.6 km/h 10.1 km/h 57% 0.0 mm
14:11 26.4 °C 17.2 °C 1017.9 hPa SE 7.2 km/h 8.3 km/h 57% 0.0 mm
15:11 26.5 °C 17 °C 1018.0 hPa SSW 6.5 km/h 12.2 km/h 56% 0.0 mm
16:12 25.9 °C 16.7 °C 1018.0 hPa SSW 2.5 km/h 8.3 km/h 57% 0.0 mm
17:11 25.9 °C 16.4 °C 1017.9 hPa SE 5.8 km/h 9.4 km/h 56% 0.0 mm
18:11 25.3 °C 15.9 °C 1018.2 hPa South 2.2 km/h 6.1 km/h 56% 0.0 mm
19:11 24.8 °C 16 °C 1018.5 hPa Calm   2.2 km/h 58% 0.0 mm
20:12 23.1 °C 14.9 °C 1019.1 hPa Calm     60% 0.0 mm
21:11 21.9 °C 14.5 °C 1020.0 hPa Calm     63% 0.0 mm
22:11 20.8 °C 14.2 °C 1020.4 hPa Calm   2.5 km/h 66% 0.0 mm
23:11 20.3 °C 14.9 °C 1020.6 hPa Calm   2.5 km/h 71% 0.0 mm
Observations météo à CASSIS
WU-History script by Weather Underground - 2 mb